Weather observations for the past three days for
Chico Municipal Airport
| Date | Time (pdt) | Wind (kph) | Vis. (km) | Weather | Sky Cond. | Temperature (ºC) | Relative Humidity | Wind Chill (°C) | Heat Index (°C) | Pressure | Precipitation (cm) | ||||||
|---|---|---|---|---|---|---|---|---|---|---|---|---|---|---|---|---|---|
| Air | Dwpt | 6 hour | altimeter (cm) | sea level (mb) | 1 hr | 3 hr | 6 hr | ||||||||||
| Max. | Min. | ||||||||||||||||
| 08 | 13:52 | W 6 | 16.09 | Fair | CLR | 28 | 17 | 51% | 29 | 76.17 | 0.0 | ||||||
| 08 | 12:50 | W 9 | 16.09 | Fair | CLR | 26 | 17 | 58% | 27 | 76.25 | 0.0 | ||||||
| 08 | 11:50 | Vrbl 9 | 16.09 | Fair | CLR | 24 | 16 | 61% | 25 | 76.33 | 0.0 | ||||||
| 08 | 10:50 | Vrbl 9 | 16.09 | Fair | CLR | 22 | 15 | 65% | 76.35 | 0.0 | |||||||
| 08 | 09:49 | SW 6 | 16.09 | Fair | CLR | 21 | 15 | 69% | 76.35 | 0.0 | |||||||
| 08 | 08:50 | Calm | 16.09 | Fair | CLR | 18 | 14 | 78% | 76.35 | 0.0 | |||||||
| 08 | 07:50 | SE 6 | 16.09 | Fair | CLR | 18 | 14 | 78% | 76.33 | 0.0 | |||||||
| 08 | 07:00 | SE 9 | 16.09 | Fair | CLR | 17 | 14 | 83% | 76.3 | 0.0 | |||||||
| 07 | 17:55 | Vrbl 9 | 16.09 | Fair | CLR | 28 | 17 | 51% | 29 | 76.07 | 0.0 | ||||||
| 07 | 16:50 | Vrbl 9 | 16.09 | Fair | CLR | 28 | 17 | 51% | 29 | 76.12 | 0.0 | ||||||
| 07 | 15:50 | Vrbl 7 | 16.09 | Fair | CLR | 27 | 17 | 54% | 28 | 76.17 | 0.0 | ||||||
| 07 | 14:50 | Vrbl 7 | 16.09 | Fair | CLR | 26 | 16 | 54% | 27 | 76.25 | 0.0 | ||||||
| 07 | 12:55 | NW 6 | 16.09 | Fair | CLR | 24 | 15 | 57% | 25 | 76.35 | 0.0 | ||||||
| 07 | 11:19 | Calm | 16.09 | Fair | CLR | 20 | 15 | 73% | 76.43 | 0.0 | |||||||
| 07 | 10:55 | SW 7 | 16.09 | Partly Cloudy | SCT035 | 19 | 15 | 78% | 76.45 | 0.0 | |||||||
| 07 | 10:10 | Calm | 16.09 | Overcast | OVC037 | 18 | 14 | 78% | 76.48 | 0.0 | |||||||
| 07 | 09:50 | Calm | 16.09 | Overcast | OVC060 | 18 | 13 | 73% | 76.48 | 0.0 | |||||||
| 07 | 08:50 | SE 6 | 16.09 | Overcast | OVC060 | 17 | 14 | 83% | 76.48 | 0.0 | |||||||
| 07 | 07:50 | E 7 | 16.09 | Fair | CLR | 16 | 13 | 83% | 76.48 | 0.0 | |||||||
| 07 | 07:00 | Calm | 16.09 | Fair | CLR | 14 | 13 | 94% | 76.43 | 0.0 | |||||||
| 06 | 17:50 | S 6 | 16.09 | Fair | CLR | 23 | 14 | 57% | 76.28 | 0.0 | |||||||
| 06 | 16:50 | W 6 | 16.09 | Fair | CLR | 24 | 14 | 54% | 25 | 76.33 | 0.0 | ||||||
| 06 | 15:50 | W 9 | 16.09 | Partly Cloudy | SCT040 | 23 | 14 | 57% | 76.3 | 0.0 | |||||||
| 06 | 14:45 | NW 9 | 16.09 | Partly Cloudy | SCT040 | 22 | 13 | 57% | 76.43 | 0.0 | |||||||
| 06 | 13:55 | W 9 | 16.09 | Partly Cloudy | SCT040 | 21 | 13 | 60% | 76.45 | 0.0 | |||||||
| 06 | 13:50 | N 13 | 16.09 | Mostly Cloudy | BKN040 | 22 | 13 | 57% | 76.5 | 0.0 | |||||||
| 06 | 12:50 | Calm | 16.09 | Mostly Cloudy | BKN035 | 20 | 12 | 60% | 76.5 | 0.0 | |||||||
| 06 | 11:55 | Vrbl 7 | 16.09 | Mostly Cloudy | BKN030 | 0 | 0 | 0% | 76.56 | 0.0 | |||||||
| 06 | 10:50 | S 7 | 16.09 | Mostly Cloudy | SCT020 BKN055 | 19 | 13 | 68% | 76.58 | 0.0 | |||||||
| 06 | 09:50 | Calm | 16.09 | Overcast | OVC042 | 17 | 13 | 77% | 76.58 | 0.0 | |||||||
| 06 | 08:55 | Calm | 16.09 | Overcast | OVC040 | 17 | 13 | 77% | 76.58 | 0.0 | |||||||
| 06 | 07:55 | SE 6 | 16.09 | Overcast | OVC040 | 16 | 13 | 83% | 76.56 | 0.0 | |||||||
| 06 | 07:00 | SE 6 | 16.09 | Overcast | OVC055 | 16 | 13 | 83% | 76.53 | 0.0 | |||||||
| 05 | 17:50 | SE 13 | 16.09 | Mostly Cloudy | BKN035 | 19 | 11 | 60% | 76.1 | 0.0 | |||||||
| 05 | 16:50 | SE 11 | 16.09 | Mostly Cloudy | BKN030 | 19 | 11 | 60% | 76.07 | 0.0 | |||||||
| Date | Time (pdt) | Wind (kph) | Vis. (km) | Weather | Sky Cond. | Air | Dwpt | Max. | Min. | Relative Humidity | Wind Chill (°C) | Heat Index (°C) | altimeter (cm) | sea level (mb) | 1 hr | 3 hr | 6 hr |
| 6 hour | |||||||||||||||||
| Temperature (ºC) | Pressure | Precipitation (cm) | |||||||||||||||